< Typhoon 201121 2012 Season Typhoon 201202 >
Typhoon 201201 (PAKHAR)
General InformationTrack Information on Google MapsDetailed Wind InformationAccess Analytics MapList of All Images || NewsDisaster Info.WeblogTrackbackTyphoon FrontTwiphoonTyphoon Now!Typhoon ImaginationResourceGoogle EarthGE AnimationAtom FeedGeoJSON
Detalied Best Track (Time Zone = UTC)
Year Month Day Hour Lat. Long. Pressure (hPa) Wind (kt) Class Image Chart
2012 3 26 00 9.5 115.7 1010 0 2 Image Chart
2012 3 26 06 9.5 115.4 1008 0 2 Image Chart
2012 3 26 12 9.5 115.1 1008 0 2 Image Chart
2012 3 26 18 9.4 114.8 1010 0 2 Image Chart
2012 3 27 00 9.4 114.5 1010 0 2 Image Chart
2012 3 27 06 9.4 114.3 1008 0 2 Image Chart
2012 3 27 12 9.4 114.0 1008 0 2 Image Chart
2012 3 27 18 9.4 113.7 1008 0 2 Image Chart
2012 3 28 00 9.4 113.4 1010 0 2 Image Chart
2012 3 28 06 9.3 113.1 1008 0 2 Image Chart
2012 3 28 12 9.3 112.8 1008 0 2 Image Chart
2012 3 28 18 9.4 112.5 1008 0 2 Image Chart
2012 3 29 00 9.6 112.3 1008 0 2 Image Chart
2012 3 29 06 9.7 112.0 1006 0 2 Image Chart
2012 3 29 12 9.7 111.8 1004 35 3 Image Chart
2012 3 29 18 9.7 111.6 1002 35 3 Image Chart
2012 3 30 00 9.7 111.3 1000 40 3 Image Chart
2012 3 30 06 9.7 111.0 998 40 3 Image Chart
2012 3 30 12 9.7 110.7 998 40 3 Image Chart
2012 3 30 18 9.7 110.4 998 40 3 Image Chart
2012 3 31 00 9.7 110.0 998 40 3 Image Chart
2012 3 31 06 9.8 109.5 998 40 3 Image Chart
2012 3 31 12 9.9 109.1 998 40 3 Image Chart
2012 3 31 18 9.9 108.7 998 40 3 Image Chart
2012 4 1 00 10.0 108.3 998 40 3 Image Chart
2012 4 1 06 10.0 107.8 1000 40 3 Image Chart
2012 4 1 12 10.5 107.4 1002 35 3 Image Chart
2012 4 1 18 11.0 107.0 1004 35 3 Image Chart
2012 4 2 00 11.5 106.5 1006 0 2 Image Chart
2012 4 2 06 12.0 106.1 1008 0 2 Image Chart
Japan Meteorological Agency Best Track Data | Correction Date : 2012-04-27
< Typhoon 201121 2012 Season Typhoon 201202 >

Help